Time;durP1;ratioP1;P1;durP2;ratioP2;P2;SDS_P1;SDS_P2;PMS_P1;PMS_P2;Temp;Humidity;BMP_temperature;BMP_pressure;BME280_temperature;BME280_humidity;BME280_pressure;Samples;Min_cycle;Max_cycle;Signal;HPM_P1;HPM_P2
2023/02/27 00:00:48;;;;;;;5.85;2.22;;;;;;;;;;5055163;28;20208;-80
2023/02/27 00:03:14;;;;;;;7.87;3.00;;;;;;;;;;5055165;28;20172;-81
2023/02/27 00:05:43;;;;;;;3.17;2.10;;;;;;;;;;5053707;28;20446;-80
2023/02/27 00:08:09;;;;;;;4.30;2.20;;;;;;;;;;5055334;28;20403;-80
2023/02/27 00:10:35;;;;;;;3.15;2.33;;;;;;;;;;5055463;28;20260;-81
2023/02/27 00:13:01;;;;;;;4.65;3.00;;;;;;;;;;5055144;28;20526;-80
2023/02/27 00:15:29;;;;;;;5.80;2.60;;;;;;;;;;5053945;28;20260;-80
2023/02/27 00:17:55;;;;;;;3.75;2.60;;;;;;;;;;5054478;28;20173;-81
2023/02/27 00:20:21;;;;;;;4.18;2.10;;;;;;;;;;5055330;28;20314;-81
2023/02/27 00:22:47;;;;;;;4.97;2.47;;;;;;;;;;5055562;28;20664;-81
2023/02/27 00:25:14;;;;;;;7.63;3.10;;;;;;;;;;5054704;28;20458;-83
2023/02/27 00:27:40;;;;;;;2.97;1.95;;;;;;;;;;5055515;28;20197;-81
2023/02/27 00:30:07;;;;;;;5.45;2.75;;;;;;;;;;5054953;28;20347;-80
2023/02/27 00:32:35;;;;;;;3.95;2.97;;;;;;;;;;5053463;28;20207;-81
2023/02/27 00:35:01;;;;;;;2.63;2.42;;;;;;;;;;5037609;28;20173;-81
2023/02/27 00:37:27;;;;;;;5.18;2.88;;;;;;;;;;5053133;28;20235;-81
2023/02/27 00:39:53;;;;;;;2.88;2.50;;;;;;;;;;5054434;28;20649;-80
2023/02/27 00:42:19;;;;;;;2.85;2.22;;;;;;;;;;5054023;28;20217;-81
2023/02/27 00:44:45;;;;;;;4.07;2.42;;;;;;;;;;5053607;28;20202;-80
2023/02/27 00:47:11;;;;;;;2.40;2.20;;;;;;;;;;5053949;28;20181;-80
2023/02/27 00:49:37;;;;;;;3.90;2.50;;;;;;;;;;5053003;28;20565;-80
2023/02/27 00:52:03;;;;;;;8.57;4.13;;;;;;;;;;5054961;28;20448;-80
2023/02/27 00:54:29;;;;;;;2.72;2.47;;;;;;;;;;5054631;28;20424;-80
2023/02/27 00:56:55;;;;;;;3.90;1.73;;;;;;;;;;5036690;28;20315;-80
2023/02/27 00:59:21;;;;;;;5.93;3.00;;;;;;;;;;5053025;28;20404;-81
2023/02/27 01:01:47;;;;;;;2.42;2.22;;;;;;;;;;5054611;28;20684;-80
2023/02/27 01:04:13;;;;;;;5.23;2.50;;;;;;;;;;5054830;28;20184;-80
2023/02/27 01:06:39;;;;;;;2.63;2.00;;;;;;;;;;5053469;28;20411;-80
2023/02/27 01:09:05;;;;;;;2.70;2.40;;;;;;;;;;5054456;28;20756;-81
2023/02/27 01:11:31;;;;;;;4.00;2.35;;;;;;;;;;5053905;28;20186;-80
2023/02/27 01:13:57;;;;;;;3.10;2.17;;;;;;;;;;5052879;28;20237;-81
2023/02/27 01:16:23;;;;;;;3.28;2.35;;;;;;;;;;5054023;28;20177;-81
2023/02/27 01:18:49;;;;;;;2.80;2.00;;;;;;;;;;5054658;28;20181;-80
2023/02/27 01:21:15;;;;;;;3.28;2.10;;;;;;;;;;5053313;28;20209;-80
2023/02/27 01:23:41;;;;;;;4.32;2.20;;;;;;;;;;5052764;28;20298;-81
2023/02/27 01:26:08;;;;;;;3.55;2.38;;;;;;;;;;5053283;28;20292;-80
2023/02/27 01:28:34;;;;;;;2.28;1.98;;;;;;;;;;5053957;28;20178;-80
2023/02/27 01:31:00;;;;;;;5.50;2.47;;;;;;;;;;5052947;28;20182;-81
2023/02/27 01:33:26;;;;;;;4.57;2.30;;;;;;;;;;5053998;28;20409;-80
2023/02/27 01:35:52;;;;;;;2.40;1.95;;;;;;;;;;5053919;28;20173;-80
2023/02/27 01:38:18;;;;;;;3.90;1.90;;;;;;;;;;5053858;28;20174;-81
2023/02/27 01:40:44;;;;;;;4.50;2.58;;;;;;;;;;5054109;28;20807;-80
2023/02/27 01:43:18;;;;;;;4.00;2.40;;;;;;;;;;5052985;28;20183;-81
2023/02/27 01:45:47;;;;;;;3.63;2.35;;;;;;;;;;5052997;28;20443;-81
2023/02/27 01:48:15;;;;;;;4.18;2.20;;;;;;;;;;5052982;28;20173;-80
2023/02/27 01:50:56;;;;;;;4.75;2.00;;;;;;;;;;5053008;28;20223;-81
2023/02/27 01:53:24;;;;;;;6.18;2.20;;;;;;;;;;5055652;28;20169;-81
2023/02/27 01:55:52;;;;;;;3.90;2.40;;;;;;;;;;5056505;28;20260;-81
2023/02/27 01:58:18;;;;;;;4.55;2.70;;;;;;;;;;5057624;28;20622;-81
2023/02/27 02:00:44;;;;;;;3.88;2.10;;;;;;;;;;5056056;28;20306;-80
2023/02/27 02:03:17;;;;;;;3.08;2.47;;;;;;;;;;5056286;28;20209;-81
2023/02/27 02:05:44;;;;;;;6.80;2.80;;;;;;;;;;5055913;28;20177;-80
2023/02/27 02:08:10;;;;;;;2.33;2.13;;;;;;;;;;5056105;28;20223;-80
2023/02/27 02:10:38;;;;;;;3.35;2.30;;;;;;;;;;5055787;28;20551;-80
2023/02/27 02:13:04;;;;;;;6.22;2.00;;;;;;;;;;5056235;28;20216;-80
2023/02/27 02:15:37;;;;;;;4.50;2.72;;;;;;;;;;5057012;28;20538;-81
2023/02/27 02:18:09;;;;;;;2.30;1.90;;;;;;;;;;5057831;28;20222;-80
2023/02/27 02:20:54;;;;;;;4.32;2.50;;;;;;;;;;5056902;28;20208;-81
2023/02/27 02:23:38;;;;;;;5.05;2.55;;;;;;;;;;5057098;28;20581;-82
2023/02/27 02:26:04;;;;;;;4.80;2.33;;;;;;;;;;5057163;28;20179;-80
2023/02/27 02:28:43;;;;;;;4.53;2.30;;;;;;;;;;5055688;28;20200;-81
2023/02/27 02:31:09;;;;;;;9.50;2.45;;;;;;;;;;5057110;28;20516;-81
2023/02/27 02:33:50;;;;;;;3.30;2.20;;;;;;;;;;5055412;28;20192;-80
2023/02/27 02:36:34;;;;;;;5.60;2.50;;;;;;;;;;5057213;28;20491;-80
2023/02/27 02:39:18;;;;;;;5.50;2.70;;;;;;;;;;5056672;28;20207;-80
2023/02/27 02:41:47;;;;;;;3.15;2.30;;;;;;;;;;5055081;28;20210;-81
2023/02/27 02:44:19;;;;;;;4.70;2.75;;;;;;;;;;5057656;28;20239;-81
2023/02/27 02:46:51;;;;;;;3.95;2.80;;;;;;;;;;5056370;28;20668;-80
2023/02/27 02:49:25;;;;;;;6.50;2.53;;;;;;;;;;5056768;28;20201;-80
2023/02/27 02:51:55;;;;;;;3.20;2.47;;;;;;;;;;5056636;28;20673;-80
2023/02/27 02:54:41;;;;;;;8.57;3.42;;;;;;;;;;5056449;28;20178;-80
2023/02/27 02:57:19;;;;;;;3.50;2.35;;;;;;;;;;5055210;28;20213;-81
2023/02/27 03:00:20;;;;;;;4.43;2.70;;;;;;;;;;5054645;28;20192;-81
2023/02/27 03:02:52;;;;;;;5.10;2.30;;;;;;;;;;4958668;28;20282;-80
2023/02/27 03:05:26;;;;;;;4.07;2.30;;;;;;;;;;5042861;28;20280;-80
2023/02/27 03:08:13;;;;;;;3.10;2.40;;;;;;;;;;5056209;28;20177;-80
2023/02/27 03:10:44;;;;;;;2.42;2.13;;;;;;;;;;5055758;28;20216;-81
2023/02/27 03:13:17;;;;;;;3.55;2.58;;;;;;;;;;5055682;28;20630;-81
2023/02/27 03:16:12;;;;;;;5.32;2.58;;;;;;;;;;5054657;28;20188;-81
2023/02/27 03:18:49;;;;;;;4.55;2.88;;;;;;;;;;5038760;28;20537;-82
2023/02/27 03:21:21;;;;;;;5.70;2.83;;;;;;;;;;5055121;28;20213;-81
2023/02/27 03:23:47;;;;;;;3.95;2.35;;;;;;;;;;5054987;28;20186;-80
2023/02/27 03:26:16;;;;;;;5.63;2.83;;;;;;;;;;5056084;28;20197;-80
2023/02/27 03:28:48;;;;;;;3.38;2.75;;;;;;;;;;5056274;28;20169;-81
2023/02/27 03:31:21;;;;;;;5.18;3.33;;;;;;;;;;5056036;28;20269;-80
2023/02/27 03:33:58;;;;;;;3.70;2.08;;;;;;;;;;5055004;28;20185;-81
2023/02/27 03:36:35;;;;;;;4.72;2.97;;;;;;;;;;5056063;28;20605;-81
2023/02/27 03:39:05;;;;;;;3.60;2.70;;;;;;;;;;5054709;28;20173;-81
2023/02/27 03:41:43;;;;;;;5.93;3.00;;;;;;;;;;5055553;28;20209;-80
2023/02/27 03:44:21;;;;;;;3.35;2.50;;;;;;;;;;5055498;28;20185;-80
2023/02/27 03:46:48;;;;;;;4.28;2.75;;;;;;;;;;5054158;28;20169;-81
2023/02/27 03:49:14;;;;;;;5.65;2.72;;;;;;;;;;5037941;28;20544;-80
2023/02/27 03:51:39;;;;;;;5.70;2.65;;;;;;;;;;5053969;28;20187;-80
2023/02/27 03:54:14;;;;;;;3.95;2.40;;;;;;;;;;5055607;28;20188;-80
2023/02/27 03:56:51;;;;;;;5.28;3.08;;;;;;;;;;5055709;28;20238;-80
2023/02/27 03:59:17;;;;;;;3.15;2.30;;;;;;;;;;5054285;28;20621;-80
2023/02/27 04:01:43;;;;;;;3.75;2.35;;;;;;;;;;5036922;28;20355;-80
2023/02/27 04:04:10;;;;;;;8.38;3.00;;;;;;;;;;5053808;28;20207;-80
2023/02/27 04:09:34;;;;;;;3.45;2.58;;;;;;;;;;5055211;28;20179;-81
2023/02/27 04:12:00;;;;;;;7.20;3.10;;;;;;;;;;5055159;28;20538;-81
2023/02/27 04:14:32;;;;;;;6.47;3.90;;;;;;;;;;5053637;28;20236;-81
2023/02/27 04:17:07;;;;;;;4.07;2.53;;;;;;;;;;5053330;28;20418;-81
2023/02/27 04:19:42;;;;;;;5.75;2.90;;;;;;;;;;5053557;28;20271;-80
2023/02/27 04:22:28;;;;;;;7.28;3.75;;;;;;;;;;5053638;28;20216;-80
2023/02/27 04:24:58;;;;;;;9.15;2.72;;;;;;;;;;5054998;28;20181;-80
2023/02/27 04:27:44;;;;;;;5.90;2.95;;;;;;;;;;5054718;28;20208;-81
2023/02/27 04:30:14;;;;;;;3.65;2.40;;;;;;;;;;5054465;28;20657;-81
2023/02/27 04:32:43;;;;;;;10.45;3.40;;;;;;;;;;5054636;28;20200;-81
2023/02/27 04:35:13;;;;;;;4.20;3.30;;;;;;;;;;5053377;28;20176;-80
2023/02/27 04:37:44;;;;;;;4.20;2.50;;;;;;;;;;5052940;28;20170;-80
2023/02/27 04:40:11;;;;;;;3.85;2.75;;;;;;;;;;5054751;28;20179;-80
2023/02/27 04:42:39;;;;;;;7.47;2.80;;;;;;;;;;5052700;28;20188;-80
2023/02/27 04:45:07;;;;;;;5.45;3.05;;;;;;;;;;5053448;28;20184;-80
2023/02/27 04:47:38;;;;;;;4.82;3.13;;;;;;;;;;5054334;28;20574;-81
2023/02/27 04:50:07;;;;;;;5.15;3.42;;;;;;;;;;5054628;28;20178;-80
2023/02/27 04:52:38;;;;;;;6.43;3.78;;;;;;;;;;5052789;28;20648;-80
2023/02/27 04:55:07;;;;;;;6.10;3.70;;;;;;;;;;5052969;28;20185;-80
2023/02/27 04:57:37;;;;;;;7.25;4.00;;;;;;;;;;5052873;28;20177;-80
2023/02/27 05:00:06;;;;;;;5.72;3.75;;;;;;;;;;5054878;28;20166;-81
2023/02/27 05:02:33;;;;;;;10.38;3.30;;;;;;;;;;5054202;28;20210;-80
2023/02/27 05:05:01;;;;;;;5.10;2.78;;;;;;;;;;5054857;28;20577;-81
2023/02/27 05:07:39;;;;;;;3.97;2.83;;;;;;;;;;5054770;28;20177;-80
2023/02/27 05:10:07;;;;;;;4.65;2.60;;;;;;;;;;5053933;28;20181;-80
2023/02/27 05:12:51;;;;;;;5.70;3.50;;;;;;;;;;5054524;28;20683;-81
2023/02/27 05:15:21;;;;;;;3.28;2.97;;;;;;;;;;5054421;28;20224;-80
2023/02/27 05:17:49;;;;;;;6.10;3.10;;;;;;;;;;5054402;28;20524;-81
2023/02/27 05:20:16;;;;;;;6.07;3.38;;;;;;;;;;5054388;28;20202;-81
2023/02/27 05:22:58;;;;;;;5.32;3.58;;;;;;;;;;5053888;28;20177;-81
2023/02/27 05:25:30;;;;;;;4.85;3.53;;;;;;;;;;5054013;28;20187;-80
2023/02/27 05:28:02;;;;;;;5.13;3.53;;;;;;;;;;5055412;28;20167;-80
2023/02/27 05:30:37;;;;;;;7.97;3.30;;;;;;;;;;5058467;28;20164;-81
2023/02/27 05:33:06;;;;;;;6.28;3.88;;;;;;;;;;5057168;28;20221;-80
2023/02/27 05:36:08;;;;;;;4.78;3.65;;;;;;;;;;5058005;28;20183;-80
2023/02/27 05:38:38;;;;;;;5.10;3.20;;;;;;;;;;4960980;28;20183;-81
2023/02/27 05:41:06;;;;;;;5.18;3.42;;;;;;;;;;5043766;28;20226;-80
2023/02/27 05:43:38;;;;;;;4.03;3.67;;;;;;;;;;5058021;28;20180;-82
2023/02/27 05:46:06;;;;;;;3.88;3.08;;;;;;;;;;5058170;28;20192;-81
2023/02/27 05:48:35;;;;;;;5.57;3.13;;;;;;;;;;5058621;28;20172;-80
2023/02/27 05:51:02;;;;;;;4.82;3.70;;;;;;;;;;5056875;28;20180;-80
2023/02/27 05:53:30;;;;;;;7.65;3.63;;;;;;;;;;5056493;28;20304;-80
2023/02/27 05:55:58;;;;;;;5.65;3.65;;;;;;;;;;5058210;28;20171;-80
2023/02/27 05:58:34;;;;;;;4.32;2.95;;;;;;;;;;5057917;28;20186;-80
2023/02/27 06:01:02;;;;;;;8.73;4.10;;;;;;;;;;5058724;28;20218;-80
2023/02/27 06:03:29;;;;;;;6.15;3.20;;;;;;;;;;5057716;28;20182;-80
2023/02/27 06:05:56;;;;;;;6.25;3.50;;;;;;;;;;5057812;28;20191;-80
2023/02/27 06:08:22;;;;;;;5.60;3.35;;;;;;;;;;5056527;28;20183;-80
2023/02/27 06:10:48;;;;;;;7.20;4.68;;;;;;;;;;5056035;28;20221;-80
2023/02/27 06:13:16;;;;;;;4.20;3.17;;;;;;;;;;5057265;28;20181;-80
2023/02/27 06:15:42;;;;;;;10.75;4.22;;;;;;;;;;5056233;28;20178;-80
2023/02/27 06:18:09;;;;;;;7.60;3.35;;;;;;;;;;5056647;28;20212;-80
2023/02/27 06:20:35;;;;;;;3.15;2.85;;;;;;;;;;5057242;28;20638;-81
2023/02/27 06:23:01;;;;;;;7.00;3.55;;;;;;;;;;5057551;28;20207;-80
2023/02/27 06:25:27;;;;;;;7.05;3.63;;;;;;;;;;5058033;28;20187;-80
2023/02/27 06:27:53;;;;;;;4.88;3.22;;;;;;;;;;5057350;28;20180;-80
2023/02/27 06:30:19;;;;;;;6.55;4.45;;;;;;;;;;5057875;28;20175;-81
2023/02/27 06:32:46;;;;;;;7.90;3.95;;;;;;;;;;5055617;28;20276;-80
2023/02/27 06:35:12;;;;;;;7.55;4.25;;;;;;;;;;5056322;28;20261;-80
2023/02/27 06:37:38;;;;;;;7.30;4.22;;;;;;;;;;5056117;28;20636;-80
2023/02/27 06:40:07;;;;;;;5.20;3.92;;;;;;;;;;5057160;28;20185;-80
2023/02/27 06:42:33;;;;;;;14.40;5.32;;;;;;;;;;5056907;28;20597;-81
2023/02/27 06:44:59;;;;;;;7.25;4.15;;;;;;;;;;5056496;28;20231;-80
2023/02/27 06:47:24;;;;;;;10.37;4.10;;;;;;;;;;5055623;28;20189;-80
2023/02/27 06:49:50;;;;;;;5.03;3.90;;;;;;;;;;5038808;28;20506;-81
2023/02/27 06:52:16;;;;;;;5.90;4.00;;;;;;;;;;5057129;28;20185;-80
2023/02/27 06:54:42;;;;;;;8.33;3.93;;;;;;;;;;5056865;28;20468;-80
2023/02/27 06:57:08;;;;;;;4.77;3.63;;;;;;;;;;5057116;28;20773;-80
2023/02/27 06:59:34;;;;;;;4.03;3.43;;;;;;;;;;5056098;28;20415;-80
2023/02/27 07:02:00;;;;;;;6.28;3.50;;;;;;;;;;5056273;28;20465;-80
2023/02/27 07:04:26;;;;;;;5.90;3.28;;;;;;;;;;5057082;28;20318;-80
2023/02/27 07:06:52;;;;;;;4.67;3.00;;;;;;;;;;5055358;28;20216;-80
2023/02/27 07:09:18;;;;;;;8.77;3.10;;;;;;;;;;5055575;28;20935;-80
2023/02/27 07:11:44;;;;;;;5.53;3.45;;;;;;;;;;5055131;28;20499;-80
2023/02/27 07:14:11;;;;;;;3.92;3.25;;;;;;;;;;5056286;28;20409;-80
2023/02/27 07:16:37;;;;;;;3.78;2.65;;;;;;;;;;5054896;28;20178;-80
2023/02/27 07:19:03;;;;;;;7.85;3.03;;;;;;;;;;5056788;28;20182;-81
2023/02/27 07:21:29;;;;;;;5.67;3.50;;;;;;;;;;5056509;28;20276;-80
2023/02/27 07:23:55;;;;;;;5.57;3.50;;;;;;;;;;5056104;28;20427;-80
2023/02/27 07:26:21;;;;;;;7.65;2.92;;;;;;;;;;5038808;28;20174;-80
2023/02/27 07:28:47;;;;;;;3.23;2.80;;;;;;;;;;5054404;28;20184;-81
2023/02/27 07:31:13;;;;;;;4.77;3.10;;;;;;;;;;5055292;28;20507;-80
2023/02/27 07:33:39;;;;;;;3.90;2.85;;;;;;;;;;5054884;28;20477;-82
2023/02/27 07:36:05;;;;;;;3.83;2.40;;;;;;;;;;5055316;28;20181;-81
2023/02/27 07:38:31;;;;;;;4.65;3.03;;;;;;;;;;5038711;28;20769;-81
2023/02/27 07:40:57;;;;;;;3.97;2.90;;;;;;;;;;5038278;28;20212;-81
2023/02/27 07:43:23;;;;;;;4.15;3.00;;;;;;;;;;5055086;28;20416;-81
2023/02/27 07:45:50;;;;;;;5.20;2.97;;;;;;;;;;5054318;28;20205;-81
2023/02/27 07:48:16;;;;;;;4.35;3.10;;;;;;;;;;5055906;28;20170;-81
2023/02/27 07:50:42;;;;;;;8.80;3.35;;;;;;;;;;5055141;28;20530;-81
2023/02/27 07:53:08;;;;;;;3.47;2.40;;;;;;;;;;5038396;28;20182;-81
2023/02/27 07:55:35;;;;;;;6.15;3.40;;;;;;;;;;5054601;28;20185;-81
2023/02/27 07:58:00;;;;;;;5.15;3.10;;;;;;;;;;5054325;28;20573;-81
2023/02/27 08:00:27;;;;;;;4.90;2.33;;;;;;;;;;5055412;28;20195;-81
2023/02/27 08:02:53;;;;;;;4.95;2.90;;;;;;;;;;5055569;28;20650;-80
2023/02/27 08:05:19;;;;;;;7.15;3.10;;;;;;;;;;5055585;28;20562;-80
2023/02/27 08:07:45;;;;;;;3.38;2.80;;;;;;;;;;5055376;28;20219;-80
2023/02/27 08:10:11;;;;;;;4.45;2.90;;;;;;;;;;5055727;28;20578;-81
2023/02/27 08:12:38;;;;;;;4.20;3.00;;;;;;;;;;5055456;28;20188;-81
2023/02/27 08:15:04;;;;;;;6.15;2.95;;;;;;;;;;5055628;28;20225;-81
2023/02/27 08:17:30;;;;;;;6.55;2.92;;;;;;;;;;5055772;28;20177;-80
2023/02/27 08:19:56;;;;;;;2.70;2.50;;;;;;;;;;5054100;28;20630;-80
2023/02/27 08:22:22;;;;;;;3.85;2.33;;;;;;;;;;5055734;28;20286;-81
2023/02/27 08:24:48;;;;;;;2.65;2.35;;;;;;;;;;5053571;28;20181;-81
2023/02/27 08:27:14;;;;;;;2.50;2.10;;;;;;;;;;5055205;28;20203;-81
2023/02/27 08:29:42;;;;;;;3.75;2.05;;;;;;;;;;5055497;28;20249;-81
2023/02/27 08:32:08;;;;;;;3.33;1.90;;;;;;;;;;5037860;28;20232;-81
2023/02/27 08:34:34;;;;;;;3.47;2.33;;;;;;;;;;5055445;28;20178;-80
2023/02/27 08:37:00;;;;;;;4.20;2.80;;;;;;;;;;5055124;28;20189;-80
2023/02/27 08:39:26;;;;;;;3.15;2.47;;;;;;;;;;5053940;28;20198;-80
2023/02/27 08:41:52;;;;;;;5.65;2.90;;;;;;;;;;5053053;28;20209;-80
2023/02/27 08:44:18;;;;;;;4.72;2.45;;;;;;;;;;5055104;28;20185;-80
2023/02/27 08:46:45;;;;;;;5.20;3.35;;;;;;;;;;5054849;28;20214;-80
2023/02/27 08:49:11;;;;;;;5.82;2.10;;;;;;;;;;5055461;28;20565;-80
2023/02/27 08:51:37;;;;;;;3.20;2.70;;;;;;;;;;5055477;28;20182;-80
2023/02/27 08:54:03;;;;;;;2.28;2.00;;;;;;;;;;5055192;28;20175;-80
2023/02/27 08:56:29;;;;;;;4.22;2.35;;;;;;;;;;5055009;28;20184;-80
2023/02/27 08:58:55;;;;;;;2.90;2.55;;;;;;;;;;5053856;28;20174;-80
2023/02/27 09:01:21;;;;;;;4.07;2.50;;;;;;;;;;5054013;28;20211;-80
2023/02/27 09:03:47;;;;;;;2.15;1.95;;;;;;;;;;5054208;28;20192;-80
2023/02/27 09:06:13;;;;;;;2.47;1.70;;;;;;;;;;5054337;28;20173;-80
2023/02/27 09:08:39;;;;;;;5.32;2.22;;;;;;;;;;5055759;28;20465;-80
2023/02/27 09:11:05;;;;;;;2.97;1.85;;;;;;;;;;5053915;28;20189;-80
2023/02/27 09:13:32;;;;;;;5.25;2.35;;;;;;;;;;5055506;28;20558;-80
2023/02/27 09:15:58;;;;;;;3.90;2.50;;;;;;;;;;5054202;28;20191;-80
2023/02/27 09:18:24;;;;;;;2.83;2.43;;;;;;;;;;5054316;28;20421;-80
2023/02/27 09:20:50;;;;;;;2.43;1.80;;;;;;;;;;5053799;28;20513;-80
2023/02/27 09:23:17;;;;;;;2.20;2.00;;;;;;;;;;5054078;28;20417;-80
2023/02/27 09:25:43;;;;;;;4.65;2.30;;;;;;;;;;5055359;28;20183;-80
2023/02/27 09:28:09;;;;;;;5.38;2.30;;;;;;;;;;5054643;28;20171;-80
2023/02/27 09:30:35;;;;;;;2.90;2.33;;;;;;;;;;5054044;28;20175;-80
2023/02/27 09:33:01;;;;;;;3.40;2.03;;;;;;;;;;5054698;28;20173;-81
2023/02/27 09:35:27;;;;;;;1.98;1.88;;;;;;;;;;5053999;28;20180;-80
2023/02/27 09:37:53;;;;;;;4.07;2.72;;;;;;;;;;5055092;28;20201;-80
2023/02/27 09:40:24;;;;;;;3.00;2.20;;;;;;;;;;5054346;28;20188;-80
2023/02/27 09:42:51;;;;;;;3.10;1.98;;;;;;;;;;5053789;28;20534;-80
2023/02/27 09:45:25;;;;;;;1.95;1.73;;;;;;;;;;5053897;28;20174;-80
2023/02/27 09:47:57;;;;;;;2.70;1.60;;;;;;;;;;5054859;28;20174;-80
2023/02/27 09:50:29;;;;;;;4.20;2.40;;;;;;;;;;5055272;28;20174;-80
2023/02/27 09:52:55;;;;;;;2.92;2.22;;;;;;;;;;5053279;28;20179;-80
2023/02/27 09:55:22;;;;;;;3.13;2.63;;;;;;;;;;5053555;28;20182;-80
2023/02/27 09:57:55;;;;;;;4.15;2.00;;;;;;;;;;5054438;28;20173;-81
2023/02/27 10:00:43;;;;;;;4.72;2.45;;;;;;;;;;5054412;28;20177;-80
2023/02/27 10:03:09;;;;;;;3.38;2.42;;;;;;;;;;5053110;28;20637;-81
2023/02/27 10:05:41;;;;;;;5.20;3.13;;;;;;;;;;5055265;28;20188;-80
2023/02/27 10:08:12;;;;;;;5.97;3.40;;;;;;;;;;5053769;28;20493;-80
2023/02/27 10:10:39;;;;;;;3.85;2.60;;;;;;;;;;5054784;28;20170;-80
2023/02/27 10:13:11;;;;;;;3.60;3.00;;;;;;;;;;5054300;28;20174;-80
2023/02/27 10:15:39;;;;;;;2.95;2.50;;;;;;;;;;5058348;28;20173;-80
2023/02/27 10:18:26;;;;;;;4.30;2.80;;;;;;;;;;5058014;28;20176;-80
2023/02/27 10:21:01;;;;;;;3.10;2.20;;;;;;;;;;5057733;28;20609;-80
2023/02/27 10:23:36;;;;;;;4.25;2.70;;;;;;;;;;5056616;28;20192;-80
2023/02/27 10:26:03;;;;;;;3.33;2.63;;;;;;;;;;5056825;28;20173;-80
2023/02/27 10:28:30;;;;;;;3.40;2.22;;;;;;;;;;5057165;28;20198;-80
2023/02/27 10:30:58;;;;;;;3.70;2.20;;;;;;;;;;5056240;28;20188;-80
2023/02/27 10:33:24;;;;;;;2.65;2.42;;;;;;;;;;5058425;28;20212;-80
2023/02/27 10:35:53;;;;;;;2.40;2.08;;;;;;;;;;5058313;28;20174;-82
2023/02/27 10:38:25;;;;;;;3.78;2.40;;;;;;;;;;5056273;28;20676;-80
2023/02/27 10:40:52;;;;;;;2.97;1.83;;;;;;;;;;5057171;28;20205;-82
2023/02/27 10:43:18;;;;;;;3.35;2.10;;;;;;;;;;5056371;28;20185;-80
2023/02/27 10:45:44;;;;;;;2.85;1.92;;;;;;;;;;5056161;28;20185;-80
2023/02/27 10:48:11;;;;;;;2.50;2.10;;;;;;;;;;5039590;28;20299;-80
2023/02/27 10:50:39;;;;;;;2.40;1.70;;;;;;;;;;5057429;28;20400;-80
2023/02/27 10:53:16;;;;;;;2.67;1.83;;;;;;;;;;5057420;28;20170;-80
2023/02/27 10:55:44;;;;;;;2.13;1.57;;;;;;;;;;5057369;28;20454;-80
2023/02/27 10:58:17;;;;;;;2.50;1.40;;;;;;;;;;5057137;28;20404;-80
2023/02/27 11:00:46;;;;;;;4.50;1.50;;;;;;;;;;5056817;28;20480;-80
2023/02/27 11:03:35;;;;;;;5.28;1.75;;;;;;;;;;5057015;28;20424;-80
2023/02/27 11:06:05;;;;;;;1.65;1.45;;;;;;;;;;5046337;28;20197;-80
2023/02/27 11:08:32;;;;;;;4.20;1.67;;;;;;;;;;5057068;28;20510;-81
2023/02/27 11:11:00;;;;;;;3.90;2.00;;;;;;;;;;5055468;28;20185;-80
2023/02/27 11:13:28;;;;;;;2.50;1.60;;;;;;;;;;5056843;28;20235;-80
2023/02/27 11:16:11;;;;;;;4.23;1.63;;;;;;;;;;5056874;28;20951;-80
2023/02/27 11:18:44;;;;;;;3.55;1.80;;;;;;;;;;5056919;28;20774;-79
2023/02/27 11:21:21;;;;;;;3.17;2.05;;;;;;;;;;5055840;28;20211;-80
2023/02/27 11:23:53;;;;;;;8.97;2.20;;;;;;;;;;5055448;28;20236;-80
2023/02/27 11:26:22;;;;;;;3.10;1.83;;;;;;;;;;5055267;28;20759;-80
2023/02/27 11:29:03;;;;;;;3.00;1.53;;;;;;;;;;5057081;28;20173;-80
2023/02/27 11:31:31;;;;;;;2.37;1.60;;;;;;;;;;5056977;28;20407;-80
2023/02/27 11:33:57;;;;;;;1.80;1.50;;;;;;;;;;5056343;28;20888;-79
2023/02/27 11:36:44;;;;;;;2.50;1.97;;;;;;;;;;5055073;28;20408;-79
2023/02/27 11:39:25;;;;;;;4.23;1.70;;;;;;;;;;5055960;28;20405;-79
2023/02/27 11:41:52;;;;;;;2.07;1.40;;;;;;;;;;5055179;28;20467;-80
2023/02/27 11:44:21;;;;;;;5.23;1.80;;;;;;;;;;5056292;28;20408;-79
2023/02/27 11:46:47;;;;;;;4.60;2.30;;;;;;;;;;5056118;28;20400;-80
2023/02/27 11:49:29;;;;;;;2.43;1.60;;;;;;;;;;5054552;28;20412;-80
2023/02/27 11:52:04;;;;;;;5.20;1.70;;;;;;;;;;5054852;28;20518;-80
2023/02/27 11:54:50;;;;;;;2.03;1.83;;;;;;;;;;5055148;28;20451;-80
2023/02/27 11:57:22;;;;;;;2.40;1.30;;;;;;;;;;5054114;28;20419;-79
2023/02/27 11:59:54;;;;;;;3.00;1.70;;;;;;;;;;5055622;28;20415;-79
2023/02/27 12:02:19;;;;;;;2.37;1.50;;;;;;;;;;5055499;28;20855;-79
2023/02/27 12:04:52;;;;;;;4.47;1.97;;;;;;;;;;5056145;28;20416;-79
2023/02/27 12:07:17;;;;;;;2.50;1.40;;;;;;;;;;5054459;28;20416;-79
2023/02/27 12:09:46;;;;;;;2.93;1.60;;;;;;;;;;5055911;28;20910;-79
2023/02/27 12:12:18;;;;;;;1.17;1.07;;;;;;;;;;5054086;28;20424;-79
2023/02/27 12:15:00;;;;;;;2.60;1.40;;;;;;;;;;5055907;28;20877;-79
2023/02/27 12:17:31;;;;;;;2.60;1.20;;;;;;;;;;5055996;28;20408;-79
2023/02/27 12:20:04;;;;;;;2.90;1.43;;;;;;;;;;5054052;28;20462;-79
2023/02/27 12:22:37;;;;;;;1.63;1.27;;;;;;;;;;5054375;28;20529;-79
2023/02/27 12:25:26;;;;;;;2.13;1.50;;;;;;;;;;5053649;28;20436;-79
2023/02/27 12:27:52;;;;;;;8.13;1.77;;;;;;;;;;5044692;28;20888;-79
2023/02/27 12:30:18;;;;;;;2.30;1.30;;;;;;;;;;5055136;28;20403;-78
2023/02/27 12:32:49;;;;;;;3.70;1.40;;;;;;;;;;5055089;28;20499;-79
2023/02/27 12:35:15;;;;;;;2.23;1.03;;;;;;;;;;5055327;28;20452;-79
2023/02/27 12:37:41;;;;;;;2.10;1.50;;;;;;;;;;5054833;28;20408;-79
2023/02/27 12:40:11;;;;;;;1.77;1.40;;;;;;;;;;5054943;28;20416;-79
2023/02/27 12:42:52;;;;;;;2.03;1.50;;;;;;;;;;5055315;28;20463;-79
2023/02/27 12:45:17;;;;;;;1.90;1.40;;;;;;;;;;5055242;28;20436;-79
2023/02/27 12:47:46;;;;;;;5.23;1.70;;;;;;;;;;5053512;28;20789;-79
2023/02/27 12:50:18;;;;;;;2.80;1.63;;;;;;;;;;5055165;28;20400;-78
2023/02/27 12:53:02;;;;;;;1.50;1.10;;;;;;;;;;5054046;28;20424;-79
2023/02/27 12:55:34;;;;;;;2.00;1.10;;;;;;;;;;5055160;28;20415;-78
2023/02/27 12:58:19;;;;;;;2.70;1.52;;;;;;;;;;5055235;28;20392;-78
2023/02/27 13:00:47;;;;;;;4.93;1.65;;;;;;;;;;5055065;28;20310;-79
2023/02/27 13:03:16;;;;;;;2.00;1.10;;;;;;;;;;5055156;28;20177;-78
2023/02/27 13:06:17;;;;;;;3.42;1.45;;;;;;;;;;5055056;28;20426;-78
2023/02/27 13:08:43;;;;;;;3.63;1.40;;;;;;;;;;4974142;28;20183;-78
2023/02/27 13:11:28;;;;;;;3.43;1.13;;;;;;;;;;5038720;28;20307;-78
2023/02/27 13:13:54;;;;;;;2.50;1.77;;;;;;;;;;5053495;28;20463;-78
2023/02/27 13:16:46;;;;;;;6.20;1.33;;;;;;;;;;5054491;28;20888;-78
2023/02/27 13:19:20;;;;;;;3.25;1.27;;;;;;;;;;5052076;28;20424;-78
2023/02/27 13:21:51;;;;;;;2.30;1.60;;;;;;;;;;5056129;28;20204;-78
2023/02/27 13:24:20;;;;;;;4.70;1.80;;;;;;;;;;5056229;28;21014;-78
2023/02/27 13:26:57;;;;;;;4.85;1.92;;;;;;;;;;5056268;28;20412;-78
2023/02/27 13:29:26;;;;;;;3.90;1.48;;;;;;;;;;5054226;28;20279;-78
2023/02/27 13:31:52;;;;;;;2.50;1.27;;;;;;;;;;5054164;28;20185;-78
2023/02/27 13:34:18;;;;;;;2.10;1.20;;;;;;;;;;5054998;28;20483;-78
2023/02/27 13:36:52;;;;;;;1.63;1.00;;;;;;;;;;5054841;28;20415;-78
2023/02/27 13:39:37;;;;;;;2.13;1.27;;;;;;;;;;5053323;28;20830;-78
2023/02/27 13:42:03;;;;;;;3.17;1.20;;;;;;;;;;5052790;28;20462;-79
2023/02/27 13:44:35;;;;;;;6.30;2.30;;;;;;;;;;5053391;28;20477;-79
2023/02/27 13:47:30;;;;;;;2.58;1.60;;;;;;;;;;5054341;28;20462;-79
2023/02/27 13:50:00;;;;;;;3.03;1.67;;;;;;;;;;5056172;28;20238;-78
2023/02/27 13:52:31;;;;;;;2.50;1.20;;;;;;;;;;5057246;28;20283;-78
2023/02/27 13:54:58;;;;;;;2.03;1.00;;;;;;;;;;5059015;28;20923;-77
2023/02/27 13:57:30;;;;;;;1.77;1.05;;;;;;;;;;5040705;28;20193;-77
2023/02/27 14:00:03;;;;;;;3.47;1.42;;;;;;;;;;5058489;28;20232;-77
2023/02/27 14:02:29;;;;;;;2.47;1.10;;;;;;;;;;5057121;28;20572;-78
2023/02/27 14:04:59;;;;;;;1.77;1.00;;;;;;;;;;5058200;28;20264;-77
2023/02/27 14:07:31;;;;;;;2.00;1.45;;;;;;;;;;5057154;28;20633;-77
2023/02/27 14:10:07;;;;;;;2.03;1.27;;;;;;;;;;5058929;28;20649;-77
2023/02/27 14:12:41;;;;;;;1.80;1.53;;;;;;;;;;5058259;28;20327;-77
2023/02/27 14:15:07;;;;;;;3.60;1.35;;;;;;;;;;5058126;28;20815;-78
2023/02/27 14:17:36;;;;;;;2.05;1.30;;;;;;;;;;5057730;28;20177;-77
2023/02/27 14:20:26;;;;;;;4.53;1.30;;;;;;;;;;5058400;28;20169;-77
2023/02/27 14:23:10;;;;;;;1.52;1.15;;;;;;;;;;5056606;28;20205;-77
2023/02/27 14:25:38;;;;;;;2.42;1.30;;;;;;;;;;5056708;28;20196;-78
2023/02/27 14:28:04;;;;;;;3.92;1.65;;;;;;;;;;5056063;28;20178;-78
2023/02/27 14:30:32;;;;;;;4.47;1.10;;;;;;;;;;5058568;28;20182;-78
2023/02/27 14:33:21;;;;;;;2.92;1.30;;;;;;;;;;5057860;28;20527;-78
2023/02/27 14:35:52;;;;;;;2.08;1.15;;;;;;;;;;5047364;28;20190;-77
2023/02/27 14:38:20;;;;;;;6.70;1.35;;;;;;;;;;5057291;28;20500;-77
2023/02/27 14:40:58;;;;;;;1.85;1.10;;;;;;;;;;5057544;28;20231;-77
2023/02/27 14:43:31;;;;;;;3.90;1.35;;;;;;;;;;5056841;28;20205;-83
2023/02/27 14:46:04;;;;;;;3.42;1.27;;;;;;;;;;5050951;28;20288;-82
2023/02/27 14:48:30;;;;;;;1.75;1.40;;;;;;;;;;5055800;28;20185;-83
2023/02/27 14:50:56;;;;;;;1.70;0.90;;;;;;;;;;5038537;28;20189;-82
2023/02/27 14:53:24;;;;;;;3.08;1.10;;;;;;;;;;5038900;28;20473;-82
2023/02/27 14:55:55;;;;;;;3.42;1.05;;;;;;;;;;5055513;28;20204;-82
2023/02/27 14:58:21;;;;;;;3.03;1.42;;;;;;;;;;5055647;28;20235;-82
2023/02/27 15:01:08;;;;;;;3.00;1.23;;;;;;;;;;5055287;28;20205;-82
2023/02/27 15:03:39;;;;;;;2.30;1.20;;;;;;;;;;5056741;28;20202;-82